Garland's Hourly Summary for Friday, May 11, 2018
Hour Temp
(f)
RH
(%)
Solar Rad.
(MJ/m2)
Rainfall
(in)
Wind
(mph)
5/11/2018 12:00 AM 75 49 0 0 8.83
5/11/2018 1:00 AM 74 51 0 0 10.32
5/11/2018 2:00 AM 72 58 0 0 9.55
5/11/2018 3:00 AM 70 63 0 0 10.36
5/11/2018 4:00 AM 69 68 0 0 10.6
5/11/2018 5:00 AM 68 73 0 0 10.26
5/11/2018 6:00 AM 67 78 0 0 9.62
5/11/2018 7:00 AM 68 77 0.03 0 9.38
5/11/2018 8:00 AM 68 76 0.39 0 9.64
5/11/2018 9:00 AM 70 71 0.73 0 10.98
5/11/2018 10:00 AM 72 60 1.53 0 13.05
5/11/2018 11:00 AM 75 56 2.3 0 13.23
5/11/2018 12:00 PM 77 50 2.53 0 13.63
5/11/2018 1:00 PM 79 47 2.39 0 13.06
5/11/2018 2:00 PM 81 42 3.13 0 13.04
5/11/2018 3:00 PM 82 41 2.55 0 12.92
5/11/2018 4:00 PM 83 40 2.52 0 13.51
5/11/2018 5:00 PM 84 37 2.26 0 13.77
5/11/2018 6:00 PM 84 37 1.46 0 12.79
5/11/2018 7:00 PM 84 38 0.82 0 12.23
5/11/2018 8:00 PM 82 40 0.33 0 11.27
5/11/2018 9:00 PM 80 43 0.01 0 9.36
5/11/2018 10:00 PM 79 46 0 0 8.21
5/11/2018 11:00 PM 77 49 0 0 7.79
Data Summary 75 53 22.98 0.00 11.14